BGY5410 LFSB-LFKJ
Flight info
| Callsign | BGY5410 |
|---|---|
| Flight time | 1h 0m |
| Altitude | 31000 |
| Route | OLBEN8N OLBEN Z50 GERSA DCT SOSON DCT ODINA DCT ERTEV/N0393F230 DCT TORTU TORTU3S |
| Aircraft | A320/M-SDE3FGHIRWY/LB1 |
Departure
| Time | 2026-04-08 08:44 |
|---|---|
| Airport | EuroAirport Basel–Mulhouse–Freiburg (LFSB) |
Arrival
| Time | 2026-04-08 09:45 |
|---|---|
| Airport | Ajaccio Napoléon Bonaparte airport (LFKJ) |
| Time | Latitude | Longitude | Altitude | Speed | Heading |
|---|---|---|---|---|---|
| 2026-04-08 08:23 | 47.59578 | 7.53004 | 872 ft | 0 kts | 111° |
| 2026-04-08 08:35 | 47.59578 | 7.53002 | 871 ft | 1 kts | 111° |
| 2026-04-08 08:35 | 47.59583 | 7.52982 | 871 ft | 2 kts | 110° |
| 2026-04-08 08:35 | 47.59588 | 7.52962 | 871 ft | 2 kts | 111° |
| 2026-04-08 08:35 | 47.59596 | 7.52942 | 871 ft | 2 kts | 148° |
| 2026-04-08 08:36 | 47.59611 | 7.52935 | 871 ft | 2 kts | 185° |
| 2026-04-08 08:36 | 47.59625 | 7.52943 | 871 ft | 2 kts | 223° |
| 2026-04-08 08:36 | 47.59630 | 7.52953 | 871 ft | 1 kts | 246° |
| 2026-04-08 08:36 | 47.59633 | 7.52961 | 871 ft | 0 kts | 243° |
| 2026-04-08 08:38 | 47.59631 | 7.52957 | 871 ft | 3 kts | 243° |
| 2026-04-08 08:38 | 47.59602 | 7.52868 | 871 ft | 15 kts | 245° |
| 2026-04-08 08:38 | 47.59618 | 7.52780 | 870 ft | 10 kts | 328° |
| 2026-04-08 08:39 | 47.59710 | 7.52714 | 869 ft | 19 kts | 335° |
| 2026-04-08 08:39 | 47.59839 | 7.52627 | 868 ft | 20 kts | 335° |
| 2026-04-08 08:39 | 47.59971 | 7.52535 | 865 ft | 21 kts | 335° |
| 2026-04-08 08:39 | 47.60103 | 7.52440 | 864 ft | 21 kts | 336° |
| 2026-04-08 08:40 | 47.60237 | 7.52352 | 862 ft | 20 kts | 336° |
| 2026-04-08 08:40 | 47.60366 | 7.52261 | 861 ft | 20 kts | 336° |
| 2026-04-08 08:40 | 47.60496 | 7.52170 | 858 ft | 20 kts | 335° |
| 2026-04-08 08:40 | 47.60629 | 7.52076 | 855 ft | 21 kts | 335° |
| 2026-04-08 08:41 | 47.60768 | 7.51979 | 851 ft | 22 kts | 335° |
| 2026-04-08 08:41 | 47.60910 | 7.51881 | 848 ft | 22 kts | 335° |
| 2026-04-08 08:41 | 47.61062 | 7.51776 | 845 ft | 25 kts | 335° |
| 2026-04-08 08:41 | 47.61224 | 7.51663 | 845 ft | 26 kts | 335° |
| 2026-04-08 08:42 | 47.61387 | 7.51549 | 851 ft | 25 kts | 335° |
| 2026-04-08 08:42 | 47.61549 | 7.51438 | 852 ft | 26 kts | 336° |
| 2026-04-08 08:42 | 47.61711 | 7.51323 | 853 ft | 23 kts | 335° |
| 2026-04-08 08:42 | 47.61804 | 7.51203 | 855 ft | 16 kts | 284° |
| 2026-04-08 08:43 | 47.61779 | 7.51053 | 855 ft | 11 kts | 244° |
| 2026-04-08 08:43 | 47.61748 | 7.51001 | 855 ft | 5 kts | 168° |
| 2026-04-08 08:43 | 47.61672 | 7.51056 | 855 ft | 32 kts | 155° |
| 2026-04-08 08:43 | 47.61245 | 7.51351 | 852 ft | 100 kts | 155° |
| 2026-04-08 08:44 | 47.60441 | 7.51912 | 860 ft | 155 kts | 155° |
| 2026-04-08 08:44 | 47.59410 | 7.52629 | 1266 ft | 164 kts | 156° |
| 2026-04-08 08:44 | 47.58376 | 7.53331 | 1853 ft | 165 kts | 156° |
| 2026-04-08 08:44 | 47.57324 | 7.54047 | 2319 ft | 171 kts | 156° |
| 2026-04-08 08:45 | 47.56220 | 7.54812 | 2609 ft | 185 kts | 155° |
| 2026-04-08 08:45 | 47.55007 | 7.55657 | 2915 ft | 201 kts | 155° |
| 2026-04-08 08:45 | 47.53680 | 7.56582 | 3162 ft | 222 kts | 155° |
| 2026-04-08 08:45 | 47.52204 | 7.57614 | 3536 ft | 241 kts | 155° |
| 2026-04-08 08:46 | 47.50637 | 7.58711 | 3955 ft | 258 kts | 155° |
| 2026-04-08 08:46 | 47.48975 | 7.59871 | 4632 ft | 264 kts | 155° |
| 2026-04-08 08:46 | 47.47282 | 7.60890 | 5419 ft | 266 kts | 164° |
| 2026-04-08 08:46 | 47.45486 | 7.61422 | 6177 ft | 269 kts | 174° |
| 2026-04-08 08:47 | 47.43608 | 7.61649 | 6935 ft | 273 kts | 176° |
| 2026-04-08 08:47 | 47.41747 | 7.61811 | 7653 ft | 277 kts | 177° |
| 2026-04-08 08:47 | 47.39838 | 7.61981 | 8390 ft | 280 kts | 177° |
| 2026-04-08 08:47 | 47.37893 | 7.62167 | 9123 ft | 283 kts | 177° |
| 2026-04-08 08:48 | 47.35983 | 7.62355 | 9803 ft | 287 kts | 176° |
| 2026-04-08 08:48 | 47.34070 | 7.62545 | 10434 ft | 291 kts | 176° |
| 2026-04-08 08:48 | 47.31940 | 7.62818 | 10875 ft | 303 kts | 168° |
| 2026-04-08 08:48 | 47.29943 | 7.63921 | 11162 ft | 317 kts | 150° |
| 2026-04-08 08:49 | 47.28004 | 7.65643 | 11536 ft | 329 kts | 146° |
| 2026-04-08 08:49 | 47.26054 | 7.67436 | 12131 ft | 333 kts | 147° |
| 2026-04-08 08:49 | 47.24063 | 7.69177 | 12746 ft | 336 kts | 148° |
| 2026-04-08 08:49 | 47.22025 | 7.70881 | 13319 ft | 340 kts | 149° |
| 2026-04-08 08:50 | 47.19948 | 7.72575 | 13892 ft | 343 kts | 150° |
| 2026-04-08 08:50 | 47.17862 | 7.74306 | 14443 ft | 346 kts | 148° |
| 2026-04-08 08:50 | 47.15971 | 7.75960 | 14953 ft | 349 kts | 147° |
| 2026-04-08 08:50 | 47.13774 | 7.77904 | 15530 ft | 352 kts | 147° |
| 2026-04-08 08:51 | 47.11620 | 7.79803 | 16061 ft | 355 kts | 147° |
| 2026-04-08 08:51 | 47.09486 | 7.81676 | 16570 ft | 358 kts | 148° |
| 2026-04-08 08:51 | 47.07367 | 7.83531 | 17065 ft | 361 kts | 148° |
| 2026-04-08 08:51 | 47.05214 | 7.85411 | 17559 ft | 364 kts | 148° |
| 2026-04-08 08:52 | 47.02997 | 7.87344 | 18042 ft | 367 kts | 148° |
| 2026-04-08 08:52 | 47.00783 | 7.89273 | 18513 ft | 370 kts | 148° |
| 2026-04-08 08:52 | 46.98571 | 7.91199 | 18979 ft | 373 kts | 148° |
| 2026-04-08 08:52 | 46.96341 | 7.93139 | 19436 ft | 375 kts | 148° |
| 2026-04-08 08:53 | 46.94078 | 7.95105 | 19896 ft | 378 kts | 148° |
| 2026-04-08 08:53 | 46.91832 | 7.97052 | 20326 ft | 381 kts | 148° |
| 2026-04-08 08:53 | 46.89530 | 7.99048 | 20756 ft | 383 kts | 148° |
| 2026-04-08 08:53 | 46.87259 | 8.01016 | 21179 ft | 386 kts | 148° |
| 2026-04-08 08:54 | 46.85208 | 8.02791 | 21521 ft | 388 kts | 148° |
| 2026-04-08 08:54 | 46.82697 | 8.04960 | 21938 ft | 391 kts | 148° |
| 2026-04-08 08:54 | 46.80347 | 8.06990 | 22333 ft | 394 kts | 148° |
| 2026-04-08 08:54 | 46.77956 | 8.09051 | 22720 ft | 396 kts | 148° |
| 2026-04-08 08:55 | 46.75586 | 8.11093 | 23092 ft | 399 kts | 148° |
| 2026-04-08 08:55 | 46.73206 | 8.13141 | 23445 ft | 401 kts | 148° |
| 2026-04-08 08:55 | 46.70755 | 8.15248 | 23804 ft | 404 kts | 148° |
| 2026-04-08 08:55 | 46.68350 | 8.17315 | 24156 ft | 406 kts | 148° |
| 2026-04-08 08:56 | 46.65913 | 8.19406 | 24508 ft | 408 kts | 148° |
| 2026-04-08 08:56 | 46.63451 | 8.21517 | 24876 ft | 410 kts | 148° |
| 2026-04-08 08:56 | 46.61014 | 8.23604 | 25230 ft | 411 kts | 148° |
| 2026-04-08 08:56 | 46.58522 | 8.25736 | 25583 ft | 413 kts | 148° |
| 2026-04-08 08:57 | 46.56067 | 8.27834 | 25912 ft | 414 kts | 148° |
| 2026-04-08 08:57 | 46.53595 | 8.29943 | 26233 ft | 416 kts | 148° |
| 2026-04-08 08:57 | 46.51079 | 8.32088 | 26556 ft | 418 kts | 148° |
| 2026-04-08 08:57 | 46.48557 | 8.34236 | 26872 ft | 420 kts | 148° |
| 2026-04-08 08:58 | 46.46073 | 8.36353 | 27175 ft | 421 kts | 148° |
| 2026-04-08 08:58 | 46.43538 | 8.38512 | 27481 ft | 423 kts | 148° |
| 2026-04-08 08:58 | 46.41104 | 8.40583 | 27775 ft | 424 kts | 148° |
| 2026-04-08 08:58 | 46.38529 | 8.42770 | 28073 ft | 426 kts | 148° |
| 2026-04-08 08:59 | 46.36012 | 8.44906 | 28353 ft | 427 kts | 148° |
| 2026-04-08 08:59 | 46.33409 | 8.47112 | 28633 ft | 429 kts | 148° |
| 2026-04-08 08:59 | 46.30855 | 8.49274 | 28896 ft | 431 kts | 148° |
| 2026-04-08 08:59 | 46.28268 | 8.51463 | 29154 ft | 432 kts | 148° |
| 2026-04-08 09:00 | 46.25648 | 8.53677 | 29414 ft | 434 kts | 148° |
| 2026-04-08 09:00 | 46.23056 | 8.55866 | 29669 ft | 435 kts | 148° |
| 2026-04-08 09:00 | 46.20442 | 8.58070 | 29919 ft | 437 kts | 148° |
| 2026-04-08 09:00 | 46.17835 | 8.60265 | 30157 ft | 438 kts | 148° |
| 2026-04-08 09:01 | 46.15176 | 8.62430 | 30405 ft | 440 kts | 151° |
| 2026-04-08 09:01 | 46.09655 | 8.65667 | 30897 ft | 444 kts | 162° |
| 2026-04-08 09:01 | 46.06609 | 8.66755 | 31127 ft | 446 kts | 168° |
| 2026-04-08 09:02 | 46.03545 | 8.67400 | 31193 ft | 448 kts | 173° |
| 2026-04-08 09:02 | 45.97349 | 8.68155 | 31182 ft | 448 kts | 174° |
| 2026-04-08 09:03 | 45.91226 | 8.68864 | 31168 ft | 448 kts | 174° |
| 2026-04-08 09:03 | 45.85465 | 8.69557 | 31161 ft | 447 kts | 174° |
| 2026-04-08 09:04 | 45.78933 | 8.70356 | 31157 ft | 447 kts | 174° |
| 2026-04-08 09:04 | 45.72704 | 8.71119 | 31155 ft | 447 kts | 174° |
| 2026-04-08 09:05 | 45.66474 | 8.71882 | 31154 ft | 447 kts | 174° |
| 2026-04-08 09:05 | 45.60236 | 8.72644 | 31154 ft | 448 kts | 174° |
| 2026-04-08 09:06 | 45.53991 | 8.73405 | 31154 ft | 448 kts | 174° |
| 2026-04-08 09:06 | 45.47761 | 8.74164 | 31154 ft | 447 kts | 174° |
| 2026-04-08 09:07 | 45.41523 | 8.74921 | 31154 ft | 447 kts | 174° |
| 2026-04-08 09:07 | 45.35265 | 8.75679 | 31154 ft | 447 kts | 174° |
| 2026-04-08 09:08 | 45.29036 | 8.76432 | 31156 ft | 450 kts | 174° |
| 2026-04-08 09:08 | 45.22761 | 8.77190 | 31157 ft | 462 kts | 174° |
| 2026-04-08 09:09 | 45.16283 | 8.77969 | 31155 ft | 464 kts | 173° |
| 2026-04-08 09:09 | 45.09848 | 8.78741 | 31154 ft | 464 kts | 173° |
| 2026-04-08 09:10 | 45.03406 | 8.79513 | 31161 ft | 465 kts | 173° |
| 2026-04-08 09:10 | 44.97007 | 8.80276 | 31178 ft | 465 kts | 173° |
| 2026-04-08 09:11 | 44.90557 | 8.81046 | 31202 ft | 465 kts | 173° |
| 2026-04-08 09:11 | 44.84175 | 8.81805 | 31217 ft | 465 kts | 173° |
| 2026-04-08 09:12 | 44.77723 | 8.82571 | 31226 ft | 465 kts | 173° |
| 2026-04-08 09:12 | 44.71264 | 8.83337 | 31230 ft | 464 kts | 173° |
| 2026-04-08 09:13 | 44.64872 | 8.84093 | 31232 ft | 464 kts | 173° |
| 2026-04-08 09:13 | 44.58427 | 8.84853 | 31233 ft | 464 kts | 173° |
| 2026-04-08 09:14 | 44.51958 | 8.85613 | 31234 ft | 464 kts | 173° |
| 2026-04-08 09:14 | 44.45541 | 8.86367 | 31233 ft | 464 kts | 173° |
| 2026-04-08 09:15 | 44.39083 | 8.87124 | 31231 ft | 464 kts | 173° |
| 2026-04-08 09:15 | 44.32661 | 8.87875 | 31225 ft | 464 kts | 173° |
| 2026-04-08 09:16 | 44.26218 | 8.88627 | 31217 ft | 464 kts | 173° |
| 2026-04-08 09:16 | 44.19749 | 8.89380 | 31212 ft | 464 kts | 173° |
| 2026-04-08 09:17 | 44.13268 | 8.90132 | 31211 ft | 464 kts | 173° |
| 2026-04-08 09:17 | 44.06841 | 8.90877 | 31210 ft | 464 kts | 173° |
| 2026-04-08 09:18 | 44.00376 | 8.91625 | 31211 ft | 464 kts | 173° |
| 2026-04-08 09:18 | 43.93944 | 8.92363 | 31212 ft | 462 kts | 173° |
| 2026-04-08 09:19 | 43.87550 | 8.93102 | 31211 ft | 462 kts | 173° |
| 2026-04-08 09:19 | 43.81095 | 8.93845 | 31212 ft | 462 kts | 173° |
| 2026-04-08 09:20 | 43.74720 | 8.94577 | 31216 ft | 461 kts | 173° |
| 2026-04-08 09:20 | 43.68334 | 8.95307 | 31221 ft | 461 kts | 173° |
| 2026-04-08 09:21 | 43.61904 | 8.95822 | 31227 ft | 462 kts | 177° |
| 2026-04-08 09:21 | 43.55428 | 8.95819 | 31231 ft | 462 kts | 178° |
| 2026-04-08 09:22 | 43.48989 | 8.95817 | 31233 ft | 462 kts | 177° |
| 2026-04-08 09:22 | 43.42581 | 8.95649 | 31233 ft | 463 kts | 182° |
| 2026-04-08 09:23 | 43.36181 | 8.94387 | 30825 ft | 466 kts | 190° |
| 2026-04-08 09:23 | 43.32991 | 8.93251 | 30079 ft | 468 kts | 195° |
| 2026-04-08 09:23 | 43.29905 | 8.91897 | 29323 ft | 468 kts | 196° |
| 2026-04-08 09:23 | 43.26797 | 8.90498 | 28753 ft | 462 kts | 196° |
| 2026-04-08 09:24 | 43.23741 | 8.89122 | 28256 ft | 456 kts | 196° |
| 2026-04-08 09:24 | 43.20764 | 8.87786 | 27764 ft | 450 kts | 196° |
| 2026-04-08 09:24 | 43.17797 | 8.86462 | 27269 ft | 444 kts | 196° |
| 2026-04-08 09:24 | 43.14844 | 8.85149 | 26774 ft | 438 kts | 196° |
| 2026-04-08 09:25 | 43.11979 | 8.83878 | 26293 ft | 433 kts | 196° |
| 2026-04-08 09:25 | 43.09172 | 8.82636 | 25818 ft | 427 kts | 196° |
| 2026-04-08 09:25 | 43.06383 | 8.81403 | 25344 ft | 422 kts | 197° |
| 2026-04-08 09:25 | 43.03551 | 8.80153 | 24839 ft | 418 kts | 197° |
| 2026-04-08 09:26 | 43.00824 | 8.78951 | 24302 ft | 415 kts | 197° |
| 2026-04-08 09:26 | 42.98106 | 8.77754 | 23724 ft | 413 kts | 197° |
| 2026-04-08 09:26 | 42.95605 | 8.76654 | 23243 ft | 410 kts | 197° |
| 2026-04-08 09:26 | 42.92866 | 8.75448 | 22739 ft | 406 kts | 197° |
| 2026-04-08 09:27 | 42.90126 | 8.74244 | 22249 ft | 402 kts | 197° |
| 2026-04-08 09:27 | 42.87503 | 8.73093 | 21780 ft | 398 kts | 197° |
| 2026-04-08 09:27 | 42.84879 | 8.71942 | 21312 ft | 394 kts | 197° |
| 2026-04-08 09:27 | 42.82298 | 8.70811 | 20848 ft | 390 kts | 197° |
| 2026-04-08 09:28 | 42.79709 | 8.69678 | 20383 ft | 387 kts | 197° |
| 2026-04-08 09:28 | 42.77199 | 8.68580 | 19928 ft | 384 kts | 197° |
| 2026-04-08 09:28 | 42.74609 | 8.67449 | 19458 ft | 381 kts | 197° |
| 2026-04-08 09:28 | 42.72113 | 8.66359 | 19001 ft | 378 kts | 197° |
| 2026-04-08 09:29 | 42.69597 | 8.65262 | 18541 ft | 374 kts | 197° |
| 2026-04-08 09:29 | 42.67139 | 8.64191 | 18088 ft | 371 kts | 197° |
| 2026-04-08 09:29 | 42.64763 | 8.63156 | 17645 ft | 369 kts | 197° |
| 2026-04-08 09:29 | 42.62318 | 8.62092 | 17188 ft | 366 kts | 198° |
| 2026-04-08 09:30 | 42.59924 | 8.61050 | 16740 ft | 363 kts | 198° |
| 2026-04-08 09:30 | 42.57568 | 8.60027 | 16298 ft | 360 kts | 198° |
| 2026-04-08 09:30 | 42.55161 | 8.58982 | 15845 ft | 358 kts | 198° |
| 2026-04-08 09:30 | 42.52767 | 8.57944 | 15393 ft | 355 kts | 198° |
| 2026-04-08 09:31 | 42.50419 | 8.56926 | 14952 ft | 352 kts | 198° |
| 2026-04-08 09:31 | 42.48100 | 8.55921 | 14516 ft | 350 kts | 198° |
| 2026-04-08 09:31 | 42.45780 | 8.54918 | 14084 ft | 347 kts | 198° |
| 2026-04-08 09:31 | 42.43487 | 8.53928 | 13654 ft | 344 kts | 198° |
| 2026-04-08 09:32 | 42.41177 | 8.52931 | 13214 ft | 342 kts | 198° |
| 2026-04-08 09:32 | 42.38909 | 8.51953 | 12776 ft | 340 kts | 199° |
| 2026-04-08 09:32 | 42.36659 | 8.50982 | 12341 ft | 338 kts | 199° |
| 2026-04-08 09:32 | 42.34434 | 8.50023 | 11913 ft | 336 kts | 199° |
| 2026-04-08 09:33 | 42.32180 | 8.49052 | 11478 ft | 334 kts | 199° |
| 2026-04-08 09:33 | 42.29971 | 8.48101 | 11054 ft | 332 kts | 199° |
| 2026-04-08 09:33 | 42.27771 | 8.47152 | 10656 ft | 328 kts | 199° |
| 2026-04-08 09:33 | 42.25617 | 8.46226 | 10479 ft | 318 kts | 199° |
| 2026-04-08 09:34 | 42.23529 | 8.45334 | 10369 ft | 306 kts | 197° |
| 2026-04-08 09:34 | 42.21464 | 8.44860 | 10239 ft | 296 kts | 182° |
| 2026-04-08 09:34 | 42.19398 | 8.45089 | 9943 ft | 293 kts | 171° |
| 2026-04-08 09:34 | 42.17430 | 8.45605 | 9673 ft | 289 kts | 169° |
| 2026-04-08 09:35 | 42.15507 | 8.46151 | 9383 ft | 286 kts | 169° |
| 2026-04-08 09:35 | 42.13540 | 8.46704 | 9055 ft | 284 kts | 169° |
| 2026-04-08 09:35 | 42.11612 | 8.47235 | 8623 ft | 286 kts | 170° |
| 2026-04-08 09:35 | 42.09654 | 8.47766 | 8360 ft | 282 kts | 170° |
| 2026-04-08 09:36 | 42.07745 | 8.48280 | 8030 ft | 280 kts | 170° |
| 2026-04-08 09:36 | 42.05808 | 8.48798 | 7637 ft | 281 kts | 170° |
| 2026-04-08 09:36 | 42.03937 | 8.49297 | 7373 ft | 277 kts | 170° |
| 2026-04-08 09:36 | 42.02097 | 8.49789 | 7098 ft | 274 kts | 170° |
| 2026-04-08 09:37 | 42.00230 | 8.50286 | 6844 ft | 269 kts | 170° |
| 2026-04-08 09:37 | 41.98418 | 8.50895 | 6549 ft | 268 kts | 159° |
| 2026-04-08 09:37 | 41.96829 | 8.52152 | 6322 ft | 264 kts | 141° |
| 2026-04-08 09:37 | 41.95484 | 8.53813 | 6197 ft | 255 kts | 137° |
| 2026-04-08 09:38 | 41.94247 | 8.55460 | 6068 ft | 247 kts | 136° |
| 2026-04-08 09:38 | 41.93046 | 8.57059 | 5938 ft | 239 kts | 137° |
| 2026-04-08 09:38 | 41.91866 | 8.58615 | 5811 ft | 235 kts | 137° |
| 2026-04-08 09:38 | 41.90682 | 8.60163 | 5600 ft | 236 kts | 136° |
| 2026-04-08 09:39 | 41.89811 | 8.61941 | 5346 ft | 235 kts | 106° |
| 2026-04-08 09:39 | 41.89542 | 8.64158 | 5154 ft | 236 kts | 97° |
| 2026-04-08 09:39 | 41.89392 | 8.66347 | 4955 ft | 235 kts | 96° |
| 2026-04-08 09:39 | 41.89243 | 8.68537 | 4755 ft | 235 kts | 96° |
| 2026-04-08 09:40 | 41.89080 | 8.70726 | 4553 ft | 234 kts | 97° |
| 2026-04-08 09:40 | 41.89091 | 8.72904 | 4335 ft | 234 kts | 73° |
| 2026-04-08 09:40 | 41.89973 | 8.74680 | 4134 ft | 232 kts | 38° |
| 2026-04-08 09:40 | 41.91320 | 8.75841 | 3970 ft | 227 kts | 24° |
| 2026-04-08 09:41 | 41.92759 | 8.76548 | 3717 ft | 215 kts | 15° |
| 2026-04-08 09:41 | 41.94105 | 8.77086 | 3370 ft | 199 kts | 20° |
| 2026-04-08 09:41 | 41.95306 | 8.77785 | 3182 ft | 175 kts | 24° |
| 2026-04-08 09:41 | 41.96373 | 8.78411 | 2874 ft | 161 kts | 22° |
| 2026-04-08 09:42 | 41.97404 | 8.78964 | 2488 ft | 156 kts | 21° |
| 2026-04-08 09:42 | 41.98333 | 8.79651 | 2166 ft | 149 kts | 44° |
| 2026-04-08 09:42 | 41.98795 | 8.80818 | 1771 ft | 145 kts | 86° |
| 2026-04-08 09:42 | 41.98547 | 8.82097 | 1336 ft | 142 kts | 130° |
| 2026-04-08 09:43 | 41.97700 | 8.82644 | 991 ft | 137 kts | 175° |
| 2026-04-08 09:43 | 41.96735 | 8.82585 | 773 ft | 140 kts | 182° |
| 2026-04-08 09:43 | 41.95770 | 8.82371 | 671 ft | 143 kts | 199° |
| 2026-04-08 09:43 | 41.94859 | 8.81792 | 524 ft | 143 kts | 204° |
| 2026-04-08 09:44 | 41.93966 | 8.81230 | 301 ft | 140 kts | 204° |
| 2026-04-08 09:44 | 41.93083 | 8.80681 | 69 ft | 139 kts | 203° |
| 2026-04-08 09:44 | 41.92289 | 8.80187 | 9 ft | 93 kts | 206° |
| 2026-04-08 09:44 | 41.91793 | 8.79876 | 9 ft | 67 kts | 205° |
| 2026-04-08 09:45 | 41.91435 | 8.79651 | 9 ft | 39 kts | 205° |
| 2026-04-08 09:45 | 41.91247 | 8.79527 | 9 ft | 18 kts | 223° |
| 2026-04-08 09:45 | 41.91270 | 8.79400 | 9 ft | 17 kts | 338° |
| 2026-04-08 09:45 | 41.91387 | 8.79338 | 9 ft | 18 kts | 346° |
| 2026-04-08 09:46 | 41.91509 | 8.79366 | 9 ft | 18 kts | 27° |
| 2026-04-08 09:46 | 41.91608 | 8.79430 | 9 ft | 14 kts | 25° |
| 2026-04-08 09:46 | 41.91694 | 8.79484 | 9 ft | 13 kts | 25° |
| 2026-04-08 09:46 | 41.91782 | 8.79539 | 9 ft | 14 kts | 22° |
| 2026-04-08 09:47 | 41.91875 | 8.79595 | 9 ft | 14 kts | 25° |
| 2026-04-08 09:47 | 41.91956 | 8.79645 | 9 ft | 8 kts | 22° |
| 2026-04-08 09:47 | 41.91991 | 8.79612 | 10 ft | 6 kts | 319° |
| 2026-04-08 09:47 | 41.92020 | 8.79601 | 10 ft | 2 kts | 346° |
| 2026-04-08 09:48 | 41.92024 | 8.79599 | 10 ft | 0 kts | 345° |